Terminal Aerodrome Forecast
Issued by NWS Wilmington, OH

Current Version | Previous Version | Text Only | Print | Product List | Glossary Off
Versions: 1 2 3 4 5 6 7 8 9 10 11 12 13 14 15 16 17 18 19 20 21 22 23 24 25 26

000
FTUS41 KILN 191400 AAA
TAFCVG
TAF AMD
KCVG 191455Z 1915/2018 09008KT P6SM FEW050
     FM192300 11004KT P6SM SKC
     FM201000 18006KT P6SM BKN050
     FM201600 22012G18KT P6SM SCT050=

USA.gov is the U.S. government's official web portal to all federal, state and local government web resources and services.